Time;durP1;ratioP1;P1;durP2;ratioP2;P2;SDS_P1;SDS_P2;PMS_P1;PMS_P2;Temp;Humidity;BMP_temperature;BMP_pressure;BME280_temperature;BME280_humidity;BME280_pressure;Samples;Min_cycle;Max_cycle;Signal;HPM_P1;HPM_P2
2022/12/28 00:00:22;;;;;;;12.07;5.03;;;;;;;4.90;100.00;101525.03;5030475;28;20423;-55
2022/12/28 00:02:47;;;;;;;14.75;5.28;;;;;;;4.93;100.00;101532.66;5023540;28;20041;-56
2022/12/28 00:05:12;;;;;;;12.77;5.30;;;;;;;4.91;100.00;101523.22;5029705;28;20032;-57
2022/12/28 00:07:38;;;;;;;10.38;5.20;;;;;;;4.92;100.00;101530.13;5024274;28;20037;-56
2022/12/28 00:10:03;;;;;;;9.93;5.47;;;;;;;4.92;100.00;101514.38;5027598;28;20037;-55
2022/12/28 00:12:29;;;;;;;15.02;5.43;;;;;;;4.91;100.00;101513.56;5022368;28;20465;-55
2022/12/28 00:14:54;;;;;;;12.00;5.10;;;;;;;4.93;100.00;101503.75;5031356;28;20477;-56
2022/12/28 00:17:19;;;;;;;12.35;5.85;;;;;;;4.94;100.00;101500.19;5024082;28;20088;-56
2022/12/28 00:19:45;;;;;;;11.52;5.40;;;;;;;4.94;100.00;101481.78;5028907;28;20033;-56
2022/12/28 00:22:10;;;;;;;12.32;5.75;;;;;;;4.98;100.00;101472.75;5017501;28;20030;-59
2022/12/28 00:24:36;;;;;;;12.45;5.65;;;;;;;4.96;100.00;101461.50;5031748;28;20444;-56
2022/12/28 00:27:01;;;;;;;12.35;5.63;;;;;;;4.95;100.00;101446.66;5024025;28;20041;-56
2022/12/28 00:29:26;;;;;;;13.57;5.47;;;;;;;4.96;100.00;101439.63;5023419;28;20040;-59
2022/12/28 00:31:51;;;;;;;12.80;5.35;;;;;;;4.93;100.00;101438.06;5029821;28;20152;-56
2022/12/28 00:34:17;;;;;;;13.80;5.60;;;;;;;4.98;100.00;101454.34;5030922;28;20061;-56
2022/12/28 00:36:42;;;;;;;12.40;5.60;;;;;;;4.97;100.00;101444.78;5021991;28;20394;-55
2022/12/28 00:39:07;;;;;;;11.32;5.60;;;;;;;4.96;100.00;101437.84;5031862;28;20078;-56
2022/12/28 00:41:33;;;;;;;11.80;5.75;;;;;;;4.98;100.00;101441.19;5023893;28;20029;-57
2022/12/28 00:43:58;;;;;;;12.35;5.10;;;;;;;5.00;100.00;101437.59;5025237;28;20099;-55
2022/12/28 00:46:23;;;;;;;9.65;5.15;;;;;;;5.03;100.00;101434.78;5021517;28;20057;-56
2022/12/28 00:48:48;;;;;;;12.27;5.35;;;;;;;5.05;100.00;101425.84;5027795;28;20037;-56
2022/12/28 00:51:16;;;;;;;11.20;5.40;;;;;;;5.07;100.00;101433.59;5025123;28;20423;-55
2022/12/28 00:53:42;;;;;;;13.63;6.00;;;;;;;5.07;100.00;101417.81;5019215;28;20444;-56
2022/12/28 00:56:13;;;;;;;11.40;5.45;;;;;;;5.06;100.00;101406.47;5019378;28;20112;-57
2022/12/28 00:58:39;;;;;;;13.65;5.68;;;;;;;5.12;100.00;101397.28;5018065;28;20038;-57
2022/12/28 01:01:10;;;;;;;11.85;5.13;;;;;;;5.12;100.00;101399.91;5022711;28;20037;-56
2022/12/28 01:03:35;;;;;;;12.27;5.53;;;;;;;5.13;100.00;101401.59;5022798;28;20037;-56
2022/12/28 01:06:08;;;;;;;11.32;5.60;;;;;;;5.15;100.00;101398.84;5014454;28;20034;-56
2022/12/28 01:08:35;;;;;;;12.77;5.60;;;;;;;5.17;100.00;101402.22;5033261;28;20167;-56
2022/12/28 01:11:09;;;;;;;10.90;5.68;;;;;;;5.19;100.00;101395.88;5032479;28;20132;-55
2022/12/28 01:13:35;;;;;;;10.88;5.50;;;;;;;5.19;100.00;101402.94;5029713;28;20041;-56
2022/12/28 01:16:19;;;;;;;14.57;5.82;;;;;;;5.21;100.00;101380.84;5031884;28;20041;-55
2022/12/28 01:18:45;;;;;;;10.18;5.30;;;;;;;5.20;100.00;101381.81;5020180;28;20045;-56
2022/12/28 01:21:16;;;;;;;11.65;5.57;;;;;;;5.22;100.00;101377.25;5021844;28;20034;-55
2022/12/28 01:23:42;;;;;;;11.57;5.88;;;;;;;5.30;100.00;101376.72;5020996;28;20094;-57
2022/12/28 01:26:08;;;;;;;11.73;5.47;;;;;;;5.31;100.00;101382.78;5019124;28;20026;-56
2022/12/28 01:28:34;;;;;;;11.65;5.57;;;;;;;5.32;100.00;101374.78;5027018;28;20490;-57
2022/12/28 01:31:04;;;;;;;13.73;5.93;;;;;;;5.32;100.00;101373.97;5022815;28;20065;-56
2022/12/28 01:33:29;;;;;;;11.35;5.22;;;;;;;5.30;100.00;101366.19;5031378;28;20040;-55
2022/12/28 01:35:55;;;;;;;10.65;5.45;;;;;;;5.31;100.00;101356.50;5031459;28;20034;-56
2022/12/28 01:38:20;;;;;;;12.30;5.38;;;;;;;5.33;100.00;101359.88;5027861;28;20052;-55
2022/12/28 01:40:45;;;;;;;13.57;5.47;;;;;;;5.37;100.00;101361.28;5021061;28;20041;-55
2022/12/28 01:43:14;;;;;;;12.52;5.68;;;;;;;5.40;100.00;101350.56;5019055;28;20036;-55
2022/12/28 01:45:45;;;;;;;10.63;5.00;;;;;;;5.41;100.00;101352.22;5035260;28;20045;-55
2022/12/28 01:48:23;;;;;;;11.48;5.13;;;;;;;5.47;100.00;101357.03;5023561;28;20060;-56
2022/12/28 01:50:49;;;;;;;10.85;4.88;;;;;;;5.46;100.00;101325.56;5021225;28;20112;-56
2022/12/28 01:53:17;;;;;;;11.25;5.00;;;;;;;5.46;100.00;101328.19;5024716;28;20037;-56
2022/12/28 01:55:42;;;;;;;11.15;5.28;;;;;;;5.51;100.00;101326.06;5024360;28;20109;-56
2022/12/28 01:58:13;;;;;;;13.77;5.20;;;;;;;5.50;100.00;101329.66;5024954;28;20084;-56
2022/12/28 02:00:39;;;;;;;12.52;5.25;;;;;;;5.54;100.00;101315.31;5019972;28;20036;-56
2022/12/28 02:03:12;;;;;;;11.07;5.40;;;;;;;5.58;100.00;101310.66;5021260;28;20030;-55
2022/12/28 02:05:42;;;;;;;9.30;4.85;;;;;;;5.59;100.00;101301.81;5026096;28;20588;-57
2022/12/28 02:08:26;;;;;;;10.80;5.07;;;;;;;5.60;100.00;101303.47;5015963;28;20052;-55
2022/12/28 02:10:52;;;;;;;9.13;5.00;;;;;;;5.58;100.00;101303.59;5019526;28;20022;-56
2022/12/28 02:13:19;;;;;;;9.88;5.10;;;;;;;5.61;100.00;101284.94;5029321;28;20370;-57
2022/12/28 02:15:46;;;;;;;9.52;5.00;;;;;;;5.61;100.00;101273.59;5020521;28;20036;-55
2022/12/28 02:18:14;;;;;;;6.03;4.55;;;;;;;5.67;100.00;101262.59;5016235;28;20445;-56
2022/12/28 02:20:54;;;;;;;9.40;4.75;;;;;;;5.69;100.00;101259.84;5023074;28;20048;-56
2022/12/28 02:23:43;;;;;;;9.93;4.70;;;;;;;5.75;100.00;101265.47;5025056;28;20080;-55
2022/12/28 02:26:23;;;;;;;9.70;4.82;;;;;;;5.77;100.00;101252.16;5026253;28;20393;-56
2022/12/28 02:29:05;;;;;;;8.77;4.75;;;;;;;5.74;100.00;101248.00;5028599;28;20040;-56
2022/12/28 02:31:47;;;;;;;8.80;5.00;;;;;;;5.72;100.00;101239.38;5028284;28;20087;-58
2022/12/28 02:34:32;;;;;;;11.60;4.72;;;;;;;5.76;100.00;101239.97;5017439;28;20513;-55
2022/12/28 02:37:10;;;;;;;9.32;5.13;;;;;;;5.76;100.00;101227.66;5025215;28;20037;-57
2022/12/28 02:40:25;;;;;;;10.68;5.30;;;;;;;5.89;100.00;101230.19;5023492;28;20026;-56
2022/12/28 02:42:53;;;;;;;9.20;5.07;;;;;;;5.69;100.00;101220.38;5017322;28;20037;-56
2022/12/28 02:51:58;;;;;;;8.98;5.35;;;;;;;5.69;100.00;101215.94;5025818;28;20133;-56
2022/12/28 02:58:06;;;;;;;9.07;5.20;;;;;;;5.72;100.00;101207.81;5019102;28;20049;-57
2022/12/28 03:00:55;;;;;;;13.48;6.00;;;;;;;5.71;100.00;101197.41;5017232;28;20076;-58
2022/12/28 03:03:30;;;;;;;14.55;6.32;;;;;;;5.63;100.00;101184.88;5020339;28;20394;-56
2022/12/28 03:09:03;;;;;;;13.38;6.45;;;;;;;5.69;100.00;101192.28;5021600;28;20079;-55
2022/12/28 03:11:39;;;;;;;9.95;6.13;;;;;;;5.64;100.00;101181.25;5028237;28;20389;-56
2022/12/28 03:14:11;;;;;;;10.93;6.20;;;;;;;5.60;100.00;101190.34;5023921;28;20039;-56
2022/12/28 03:31:06;;;;;;;12.48;6.43;;;;;;;5.68;100.00;101179.22;5022779;28;20075;-56
2022/12/28 03:33:39;;;;;;;14.23;6.57;;;;;;;5.67;100.00;101173.13;5023952;28;20048;-56
2022/12/28 03:36:14;;;;;;;9.35;6.05;;;;;;;5.76;100.00;101174.19;5024309;28;20030;-56
2022/12/28 03:39:12;;;;;;;14.45;6.53;;;;;;;5.72;100.00;101170.97;5027462;28;20044;-56
2022/12/28 03:41:46;;;;;;;13.73;6.63;;;;;;;5.70;100.00;101178.16;5011147;28;20477;-58
2022/12/28 03:44:25;;;;;;;10.40;6.57;;;;;;;5.75;100.00;101169.88;5021850;28;20112;-56
2022/12/28 03:47:22;;;;;;;11.90;7.00;;;;;;;5.78;100.00;101159.94;5027953;28;20095;-56
2022/12/28 03:49:48;;;;;;;12.75;6.43;;;;;;;5.81;100.00;101158.06;5016117;28;20045;-56
2022/12/28 03:52:13;;;;;;;10.55;6.13;;;;;;;5.82;100.00;101155.28;5021867;28;20052;-55
2022/12/28 03:54:39;;;;;;;12.70;6.38;;;;;;;5.84;100.00;101147.25;5025000;28;20022;-56
2022/12/28 03:57:04;;;;;;;12.43;6.45;;;;;;;5.83;100.00;101146.44;5028373;28;20030;-56
2022/12/28 03:59:30;;;;;;;11.95;6.53;;;;;;;5.91;100.00;101143.19;5029024;28;20039;-56
2022/12/28 04:01:55;;;;;;;9.77;5.18;;;;;;;6.02;100.00;101137.91;5024877;28;20033;-56
2022/12/28 04:04:20;;;;;;;11.82;6.30;;;;;;;6.08;100.00;101139.22;5020711;28;20033;-57
2022/12/28 04:06:46;;;;;;;10.73;6.60;;;;;;;5.96;100.00;101141.00;5019054;28;20030;-55
2022/12/28 04:09:11;;;;;;;14.80;6.60;;;;;;;5.98;100.00;101133.84;5023572;28;20152;-57
2022/12/28 04:11:36;;;;;;;10.85;6.38;;;;;;;6.05;100.00;101140.31;5028067;28;20037;-56
2022/12/28 04:14:04;;;;;;;12.68;6.30;;;;;;;6.07;100.00;101131.44;5021990;28;20088;-56
2022/12/28 04:16:30;;;;;;;11.00;6.28;;;;;;;6.08;100.00;101138.38;5021689;28;20113;-57
2022/12/28 04:18:55;;;;;;;14.30;6.40;;;;;;;6.14;100.00;101137.88;5021718;28;20114;-55
2022/12/28 04:21:20;;;;;;;10.85;6.10;;;;;;;6.14;100.00;101141.38;5016012;28;20141;-56
2022/12/28 04:23:46;;;;;;;12.38;6.22;;;;;;;6.14;100.00;101133.47;5017460;28;20046;-56
2022/12/28 04:26:13;;;;;;;12.15;6.00;;;;;;;6.27;100.00;101135.91;5016193;28;20128;-57
2022/12/28 04:28:39;;;;;;;10.02;5.60;;;;;;;6.26;100.00;101131.63;5025868;28;20358;-56
2022/12/28 04:31:06;;;;;;;8.85;4.57;;;;;;;6.33;100.00;101142.50;5028028;28;20033;-56
2022/12/28 04:33:33;;;;;;;12.23;5.75;;;;;;;6.30;100.00;101130.41;5026424;28;20037;-55
2022/12/28 04:36:11;;;;;;;10.23;5.38;;;;;;;6.48;100.00;101139.53;5031409;28;20120;-56
2022/12/28 04:38:37;;;;;;;13.18;6.07;;;;;;;6.35;100.00;101129.19;5023884;28;20528;-56
2022/12/28 04:41:04;;;;;;;13.50;5.93;;;;;;;6.33;100.00;101126.69;5014915;28;20021;-55
2022/12/28 04:43:30;;;;;;;11.30;6.10;;;;;;;6.38;100.00;101128.94;5020552;28;20482;-55
2022/12/28 04:45:57;;;;;;;11.55;5.88;;;;;;;6.36;100.00;101120.34;5019941;28;20108;-56
2022/12/28 04:48:22;;;;;;;12.63;6.07;;;;;;;6.37;100.00;101124.63;5027722;28;20013;-56
2022/12/28 04:50:47;;;;;;;11.52;5.95;;;;;;;6.35;100.00;101134.47;5026387;28;20191;-56
2022/12/28 04:53:12;;;;;;;12.88;6.45;;;;;;;6.38;100.00;101124.50;5030431;28;20495;-56
2022/12/28 04:55:38;;;;;;;12.23;5.95;;;;;;;6.37;100.00;101116.72;5028161;28;20577;-55
2022/12/28 04:58:03;;;;;;;11.98;6.60;;;;;;;6.35;100.00;101113.41;5026482;28;20030;-56
2022/12/28 05:00:28;;;;;;;10.57;6.10;;;;;;;6.36;100.00;101115.06;5028684;28;20033;-55
2022/12/28 05:02:57;;;;;;;13.07;6.03;;;;;;;6.37;100.00;101122.00;5025581;28;20362;-55
2022/12/28 05:05:23;;;;;;;10.68;6.28;;;;;;;6.40;100.00;101121.72;5015884;28;20474;-58
2022/12/28 05:07:48;;;;;;;10.18;5.63;;;;;;;6.43;100.00;101122.31;5029725;28;20060;-56
2022/12/28 05:10:13;;;;;;;11.80;6.10;;;;;;;6.51;100.00;101124.31;5028142;28;20056;-55
2022/12/28 05:12:39;;;;;;;12.70;5.97;;;;;;;6.46;100.00;101111.53;5028188;28;20079;-55
2022/12/28 05:15:04;;;;;;;13.45;5.75;;;;;;;6.48;100.00;101108.78;5029316;28;20029;-57
2022/12/28 05:17:30;;;;;;;10.23;5.95;;;;;;;6.48;100.00;101108.78;5014939;28;20109;-56
2022/12/28 05:19:55;;;;;;;13.75;6.40;;;;;;;6.44;100.00;101117.88;5023838;28;20037;-56
2022/12/28 05:22:20;;;;;;;13.55;6.82;;;;;;;6.43;100.00;101110.94;5028213;28;20423;-56
2022/12/28 05:24:46;;;;;;;10.65;6.07;;;;;;;6.44;100.00;101116.09;5030759;28;20091;-55
2022/12/28 05:27:11;;;;;;;9.07;5.82;;;;;;;6.52;100.00;101107.53;5032202;28;20022;-55
2022/12/28 05:29:36;;;;;;;9.48;5.90;;;;;;;6.45;100.00;101103.75;5029255;28;20032;-56
2022/12/28 05:32:01;;;;;;;12.48;6.20;;;;;;;6.49;100.00;101099.06;5026181;28;20053;-57
2022/12/28 05:34:27;;;;;;;9.20;6.00;;;;;;;6.55;100.00;101107.28;5023052;28;20038;-57
2022/12/28 05:36:52;;;;;;;11.65;6.30;;;;;;;6.51;100.00;101108.50;5020916;28;20605;-56
2022/12/28 05:39:17;;;;;;;10.48;5.50;;;;;;;6.51;100.00;101108.50;5027843;28;20099;-56
2022/12/28 05:41:43;;;;;;;10.23;6.05;;;;;;;6.51;100.00;101111.13;5026671;28;20052;-56
2022/12/28 05:44:08;;;;;;;14.27;6.07;;;;;;;6.55;100.00;101115.19;5023814;28;20038;-56
2022/12/28 05:46:34;;;;;;;9.70;5.85;;;;;;;6.53;100.00;101106.59;5029715;28;20038;-56
2022/12/28 05:49:00;;;;;;;10.13;5.80;;;;;;;6.56;100.00;101121.31;5031608;28;20053;-56
2022/12/28 05:51:31;;;;;;;9.95;5.80;;;;;;;6.50;100.00;101101.56;5025605;28;20022;-56
2022/12/28 05:53:58;;;;;;;10.50;5.72;;;;;;;6.57;100.00;101108.00;5018803;28;20390;-56
2022/12/28 05:56:26;;;;;;;9.70;5.68;;;;;;;6.67;100.00;101107.22;5027199;28;20029;-57
2022/12/28 05:58:59;;;;;;;8.98;5.72;;;;;;;6.59;100.00;101100.81;5027121;28;20041;-56
2022/12/28 06:01:27;;;;;;;9.02;5.65;;;;;;;6.57;100.00;101092.19;5014757;28;20492;-55
2022/12/28 06:03:56;;;;;;;11.65;5.68;;;;;;;6.59;100.00;101095.53;5027577;28;20056;-55
2022/12/28 06:06:22;;;;;;;9.73;5.60;;;;;;;6.58;100.00;101093.84;5020767;28;20101;-55
2022/12/28 06:08:48;;;;;;;9.25;5.55;;;;;;;6.64;100.00;101081.13;5023369;28;20121;-56
2022/12/28 06:11:19;;;;;;;8.63;5.22;;;;;;;6.62;100.00;101081.28;5028691;28;20033;-55
2022/12/28 06:13:45;;;;;;;9.35;5.30;;;;;;;6.68;100.00;101083.41;5032067;28;20037;-56
2022/12/28 06:16:16;;;;;;;6.88;4.70;;;;;;;6.66;100.00;101079.22;5025260;28;20928;-56
2022/12/28 06:18:42;;;;;;;9.82;5.15;;;;;;;6.64;100.00;101060.03;5027005;28;20037;-56
2022/12/28 06:21:16;;;;;;;10.63;5.45;;;;;;;6.70;100.00;101070.06;5029533;28;20048;-56
2022/12/28 06:23:42;;;;;;;9.32;5.05;;;;;;;6.70;100.00;101070.06;5024167;28;20112;-55
2022/12/28 06:26:11;;;;;;;8.15;4.93;;;;;;;6.76;100.00;101063.44;5026997;28;20041;-56
2022/12/28 06:28:37;;;;;;;7.72;5.03;;;;;;;6.77;100.00;101065.97;5029807;28;20029;-56
2022/12/28 06:31:09;;;;;;;8.15;5.15;;;;;;;6.77;100.00;101058.06;5023503;28;20373;-56
2022/12/28 06:33:35;;;;;;;8.68;5.20;;;;;;;6.71;100.00;101040.94;5029482;28;20783;-56
2022/12/28 06:36:01;;;;;;;7.47;5.00;;;;;;;6.70;100.00;101048.97;5027652;28;20047;-56
2022/12/28 06:38:30;;;;;;;6.93;4.88;;;;;;;6.68;100.00;101046.50;5024669;28;20041;-57
2022/12/28 06:41:01;;;;;;;12.57;5.50;;;;;;;6.73;100.00;101051.38;5022351;28;20060;-56
2022/12/28 06:43:30;;;;;;;10.65;5.70;;;;;;;6.75;100.00;101036.25;5023820;28;20033;-56
2022/12/28 06:45:56;;;;;;;10.32;5.68;;;;;;;6.70;100.00;101038.44;5029214;28;20029;-55
2022/12/28 06:48:21;;;;;;;8.88;5.50;;;;;;;6.75;100.00;101043.34;5029259;28;20040;-57
2022/12/28 06:50:54;;;;;;;8.07;5.40;;;;;;;6.76;100.00;101043.19;5023807;28;20104;-57
2022/12/28 06:53:20;;;;;;;;;;;;;;;6.77;100.00;101050.16;5026384;28;20118;-56
2022/12/28 06:55:52;;;;;;;8.80;5.43;;;;;;;6.75;100.00;101045.97;5015914;28;20004;-56
2022/12/28 06:58:17;;;;;;;11.25;5.57;;;;;;;6.77;100.00;101039.59;5022987;28;20029;-57
2022/12/28 07:00:43;;;;;;;10.70;5.75;;;;;;;6.77;100.00;101039.59;5025855;28;20048;-57
2022/12/28 07:03:08;;;;;;;9.57;5.88;;;;;;;6.82;100.00;101036.56;5020154;28;20032;-57
2022/12/28 07:05:33;;;;;;;11.85;6.07;;;;;;;6.78;100.00;101033.38;5024170;28;20457;-56
2022/12/28 07:07:58;;;;;;;9.80;5.50;;;;;;;6.80;100.00;101034.06;5018972;28;20026;-56
2022/12/28 07:10:24;;;;;;;12.55;5.88;;;;;;;6.81;100.00;101041.00;5029167;28;20041;-56
2022/12/28 07:12:49;;;;;;;9.38;5.65;;;;;;;6.81;100.00;101033.09;5019417;28;20397;-60
2022/12/28 07:15:14;;;;;;;11.90;5.50;;;;;;;6.83;100.00;101033.81;5031306;28;20089;-60
2022/12/28 07:17:39;;;;;;;13.25;5.80;;;;;;;6.86;100.00;101041.44;5020777;28;20117;-56
2022/12/28 07:20:05;;;;;;;8.32;5.40;;;;;;;6.81;100.00;101017.25;5024067;28;20025;-57
2022/12/28 07:22:30;;;;;;;7.95;5.43;;;;;;;6.91;100.00;101032.31;5016123;28;20088;-56
2022/12/28 07:24:56;;;;;;;11.32;5.47;;;;;;;6.88;100.00;101032.56;5025384;28;20030;-56
2022/12/28 07:27:21;;;;;;;10.10;5.18;;;;;;;6.88;100.00;101022.84;5017039;28;20032;-56
2022/12/28 07:29:46;;;;;;;12.10;5.53;;;;;;;6.86;100.00;101030.88;5025372;28;20037;-57
2022/12/28 07:32:12;;;;;;;10.20;5.18;;;;;;;6.86;100.00;101024.81;5020297;28;20065;-56
2022/12/28 07:34:37;;;;;;;7.28;5.10;;;;;;;6.89;100.00;101036.84;5020454;28;20547;-56
2022/12/28 07:37:02;;;;;;;6.95;4.75;;;;;;;6.89;100.00;101026.31;5019385;28;20028;-56
2022/12/28 07:39:27;;;;;;;8.13;5.13;;;;;;;6.85;100.00;101034.50;5020210;28;20029;-56
2022/12/28 07:41:53;;;;;;;7.18;4.65;;;;;;;6.92;100.00;101042.72;5012113;28;20022;-56
2022/12/28 07:44:18;;;;;;;9.25;4.72;;;;;;;6.98;100.00;101030.81;5013286;28;20104;-58
2022/12/28 07:46:43;;;;;;;9.38;5.00;;;;;;;6.92;100.00;101031.34;5027652;28;20021;-56
2022/12/28 07:49:09;;;;;;;7.70;4.65;;;;;;;6.92;100.00;101031.34;5014954;28;20470;-57
2022/12/28 07:51:36;;;;;;;11.20;5.38;;;;;;;6.97;100.00;101029.13;5011261;28;20030;-56
2022/12/28 07:54:01;;;;;;;11.88;5.20;;;;;;;6.97;100.00;101039.69;5022509;28;20025;-56
2022/12/28 07:56:28;;;;;;;8.43;4.70;;;;;;;6.97;100.00;101035.22;5024232;28;20417;-57
2022/12/28 07:58:56;;;;;;;6.22;4.95;;;;;;;6.94;100.00;101034.66;5029507;28;20096;-56
2022/12/28 08:01:24;;;;;;;9.50;5.07;;;;;;;7.00;100.00;101039.41;5028916;28;20057;-57
2022/12/28 08:03:55;;;;;;;7.82;5.03;;;;;;;7.00;100.00;101031.50;5029012;28;20037;-56
2022/12/28 08:06:22;;;;;;;8.27;5.03;;;;;;;7.03;100.00;101031.25;5024511;28;20029;-57
2022/12/28 08:08:50;;;;;;;8.70;5.18;;;;;;;7.03;100.00;101025.97;5029124;28;20469;-58
2022/12/28 08:11:21;;;;;;;9.85;5.22;;;;;;;7.03;100.00;101028.59;5022944;28;20033;-56
2022/12/28 08:13:48;;;;;;;8.80;5.20;;;;;;;7.03;100.00;101030.38;5021524;28;20033;-57
2022/12/28 08:16:17;;;;;;;11.02;5.05;;;;;;;7.11;100.00;101036.66;5027024;28;20018;-56
2022/12/28 08:18:43;;;;;;;10.10;5.20;;;;;;;7.08;100.00;101036.09;5022900;28;20038;-56
2022/12/28 08:21:15;;;;;;;9.32;4.97;;;;;;;7.10;100.00;101034.16;5026748;28;20477;-56
2022/12/28 08:23:41;;;;;;;8.20;4.75;;;;;;;7.07;100.00;101030.00;5020450;28;20037;-58
2022/12/28 08:26:25;;;;;;;11.48;5.40;;;;;;;7.11;100.00;101028.75;5022033;28;20088;-57
2022/12/28 08:28:53;;;;;;;11.82;5.15;;;;;;;7.10;100.00;101029.72;5023389;28;20042;-57
2022/12/28 08:31:28;;;;;;;11.23;5.45;;;;;;;7.14;100.00;101027.66;5027707;28;20466;-57
2022/12/28 08:33:55;;;;;;;13.18;5.53;;;;;;;7.11;100.00;101028.75;5033692;28;20042;-57
2022/12/28 08:36:21;;;;;;;11.85;5.53;;;;;;;7.10;100.00;101029.72;5021351;28;20068;-57
2022/12/28 08:38:47;;;;;;;14.70;6.00;;;;;;;7.13;100.00;101032.13;5016361;28;20069;-57
2022/12/28 08:41:15;;;;;;;9.93;5.57;;;;;;;7.10;100.00;101024.47;5014231;28;20658;-55
2022/12/28 08:43:42;;;;;;;13.85;5.35;;;;;;;7.18;100.00;101025.59;5023879;28;20064;-57
2022/12/28 08:46:18;;;;;;;9.85;5.63;;;;;;;7.12;100.00;101033.06;5018351;28;20022;-56
2022/12/28 08:48:45;;;;;;;12.95;5.55;;;;;;;7.14;100.00;101014.47;5033263;28;20034;-57
2022/12/28 08:51:17;;;;;;;13.30;5.40;;;;;;;7.15;100.00;101020.59;5028240;28;20036;-56
2022/12/28 08:53:43;;;;;;;11.13;5.20;;;;;;;7.20;100.00;101028.94;5026936;28;20044;-59
2022/12/28 08:56:11;;;;;;;9.93;5.10;;;;;;;7.20;100.00;101023.66;5017660;28;20309;-57
2022/12/28 08:58:38;;;;;;;14.85;5.10;;;;;;;7.18;100.00;101022.94;5027082;28;20132;-57
2022/12/28 09:01:18;;;;;;;9.90;4.85;;;;;;;7.16;100.00;101027.53;5019140;28;20037;-56
2022/12/28 09:03:45;;;;;;;11.43;5.00;;;;;;;7.18;100.00;101015.03;5021010;28;20417;-56
2022/12/28 09:06:13;;;;;;;13.02;5.47;;;;;;;7.15;100.00;101026.69;5015139;28;20026;-57
2022/12/28 09:08:39;;;;;;;12.18;5.43;;;;;;;7.17;100.00;101023.91;5027948;28;20041;-56
2022/12/28 09:11:07;;;;;;;13.02;5.47;;;;;;;7.17;100.00;101023.91;5026958;28;20021;-57
2022/12/28 09:13:33;;;;;;;12.07;5.20;;;;;;;7.18;100.00;101025.59;5020342;28;20029;-57
2022/12/28 09:16:04;;;;;;;10.18;4.80;;;;;;;7.17;100.00;101032.69;5028631;28;20381;-57
2022/12/28 09:18:29;;;;;;;12.63;5.60;;;;;;;7.16;100.00;101032.81;5019442;28;20117;-60
2022/12/28 09:20:55;;;;;;;10.93;5.20;;;;;;;7.18;100.00;101036.97;5029691;28;20041;-56
2022/12/28 09:23:20;;;;;;;13.63;5.38;;;;;;;7.17;100.00;101034.47;5020604;28;20517;-57
2022/12/28 09:25:46;;;;;;;7.22;4.70;;;;;;;7.23;100.00;101033.94;5024630;28;20025;-56
2022/12/28 09:28:11;;;;;;;9.93;4.65;;;;;;;7.23;100.00;101033.94;5025685;28;20036;-56
2022/12/28 09:30:37;;;;;;;12.35;4.68;;;;;;;7.26;100.00;101028.41;5025199;28;20038;-57
2022/12/28 09:35:46;;;;;;;8.15;4.35;;;;;;;7.27;100.00;101024.78;5023604;28;20111;-58
2022/12/28 09:38:11;;;;;;;9.95;4.53;;;;;;;7.26;100.00;101034.50;5029191;28;20440;-57
2022/12/28 09:40:37;;;;;;;9.93;4.70;;;;;;;7.31;100.00;101028.84;5032525;28;20029;-57
2022/12/28 09:43:04;;;;;;;9.68;4.38;;;;;;;7.30;100.00;101029.78;5028776;28;20526;-56
2022/12/28 09:45:31;;;;;;;10.48;4.30;;;;;;;7.30;100.00;101029.78;5025760;28;20099;-57
2022/12/28 09:48:06;;;;;;;6.80;4.25;;;;;;;7.34;100.00;101018.00;5026232;28;20026;-57
2022/12/28 09:50:34;;;;;;;8.80;4.13;;;;;;;7.33;100.00;101026.03;5027460;28;20692;-56
2022/12/28 09:53:05;;;;;;;6.50;4.18;;;;;;;7.37;100.00;101024.81;5019926;28;20485;-58
2022/12/28 09:55:36;;;;;;;6.13;3.78;;;;;;;7.38;100.00;101023.81;5014719;28;20052;-58
2022/12/28 09:58:04;;;;;;;6.13;3.70;;;;;;;7.37;100.00;101022.16;5024401;28;20588;-56
2022/12/28 10:00:45;;;;;;;8.25;3.63;;;;;;;7.43;100.00;101016.34;5021129;28;20045;-57
2022/12/28 10:03:25;;;;;;;6.82;3.25;;;;;;;7.51;100.00;101018.31;5020704;28;20022;-56
2022/12/28 10:05:53;;;;;;;8.32;3.70;;;;;;;7.43;100.00;101018.97;5019133;28;20025;-57
2022/12/28 10:08:21;;;;;;;5.63;3.55;;;;;;;7.45;100.00;101021.50;5023945;28;20052;-57
2022/12/28 10:10:48;;;;;;;5.05;3.17;;;;;;;7.44;100.00;101014.56;5025235;28;20030;-57
2022/12/28 10:13:25;;;;;;;4.35;3.35;;;;;;;7.52;100.00;101012.06;5021050;28;20059;-57
2022/12/28 10:15:51;;;;;;;7.97;3.40;;;;;;;7.46;100.00;101012.59;5025610;28;20051;-57
2022/12/28 10:18:24;;;;;;;6.00;3.08;;;;;;;7.43;100.00;101007.59;5021114;28;20061;-56
2022/12/28 10:20:50;;;;;;;4.13;3.40;;;;;;;7.46;100.00;101008.13;5024081;28;20072;-57
2022/12/28 10:23:19;;;;;;;3.72;3.10;;;;;;;7.47;100.00;101003.72;5019169;28;20091;-57
2022/12/28 10:25:46;;;;;;;4.10;3.20;;;;;;;7.51;100.00;100998.00;5025528;28;20112;-56
2022/12/28 10:28:13;;;;;;;4.30;3.28;;;;;;;7.48;100.00;101005.38;5026872;28;20097;-57
2022/12/28 10:31:06;;;;;;;4.85;3.50;;;;;;;7.48;100.00;100994.81;5021858;28;20034;-58
2022/12/28 10:33:36;;;;;;;3.45;3.15;;;;;;;7.47;100.00;101001.06;5020743;28;20037;-57
2022/12/28 10:36:01;;;;;;;6.53;3.50;;;;;;;7.53;100.00;100995.25;5024936;28;20804;-57
2022/12/28 10:38:33;;;;;;;4.35;3.22;;;;;;;7.52;100.00;100993.56;5026566;28;20035;-58
2022/12/28 10:41:02;;;;;;;3.97;3.47;;;;;;;7.52;100.00;101001.50;5022035;28;20030;-57
2022/12/28 10:43:31;;;;;;;5.20;3.53;;;;;;;7.51;100.00;100994.56;5024896;28;20109;-58
2022/12/28 10:45:58;;;;;;;8.90;3.75;;;;;;;7.49;100.00;100988.56;5024088;28;20056;-57
2022/12/28 10:48:37;;;;;;;4.25;3.70;;;;;;;7.52;100.00;100991.78;5020640;28;20058;-57
2022/12/28 10:51:15;;;;;;;6.68;4.00;;;;;;;7.51;100.00;100981.38;5022571;28;20034;-56
2022/12/28 10:53:46;;;;;;;9.57;4.22;;;;;;;7.51;100.00;100978.72;5021523;28;20038;-58
2022/12/28 10:56:12;;;;;;;5.55;3.70;;;;;;;7.53;100.00;100984.69;5021186;28;20038;-58
2022/12/28 10:58:42;;;;;;;7.78;4.00;;;;;;;7.62;100.00;100981.22;5022026;28;20103;-58
2022/12/28 11:01:13;;;;;;;7.45;4.00;;;;;;;7.61;100.00;100978.72;5019399;28;20246;-57
2022/12/28 11:03:41;;;;;;;4.25;3.85;;;;;;;7.57;100.00;100970.25;5020936;28;20045;-58
2022/12/28 11:06:13;;;;;;;9.75;4.22;;;;;;;7.60;100.00;100972.59;5021295;28;20033;-57
2022/12/28 11:08:40;;;;;;;8.25;3.75;;;;;;;7.56;100.00;100979.16;5022527;28;20909;-57
2022/12/28 11:11:09;;;;;;;8.40;3.72;;;;;;;7.59;100.00;100973.56;5023414;28;20033;-57
2022/12/28 11:13:36;;;;;;;7.95;3.70;;;;;;;7.67;100.00;100973.75;5021823;28;20112;-56
2022/12/28 11:16:06;;;;;;;8.23;3.70;;;;;;;7.68;100.00;100966.63;5020384;28;20037;-57
2022/12/28 11:18:31;;;;;;;7.63;3.88;;;;;;;7.69;100.00;100980.69;5024879;28;20029;-57
2022/12/28 11:20:57;;;;;;;10.07;4.03;;;;;;;7.71;100.00;100966.38;5023621;28;20041;-56
2022/12/28 11:23:31;;;;;;;7.53;3.65;;;;;;;7.68;100.00;100964.00;5020096;28;20051;-57
2022/12/28 11:25:57;;;;;;;5.75;3.85;;;;;;;7.67;100.00;100952.63;5022884;28;20491;-58
2022/12/28 11:28:23;;;;;;;8.55;3.72;;;;;;;7.76;100.00;100956.19;5023732;28;20021;-57
2022/12/28 11:30:50;;;;;;;8.32;3.78;;;;;;;7.68;100.00;100942.88;5022083;28;20796;-59
2022/12/28 11:33:34;;;;;;;8.50;4.15;;;;;;;7.75;100.00;100945.81;5023035;28;20061;-57
2022/12/28 11:36:00;;;;;;;9.13;4.20;;;;;;;7.71;100.00;100936.50;5024055;28;20026;-58
2022/12/28 11:38:37;;;;;;;9.35;4.05;;;;;;;7.73;100.00;100929.25;5020578;28;20036;-57
2022/12/28 11:41:03;;;;;;;9.40;4.03;;;;;;;7.71;100.00;100932.06;5018180;28;20041;-56
2022/12/28 11:43:28;;;;;;;4.47;3.40;;;;;;;7.83;100.00;100930.09;4984725;28;1036053;-57
2022/12/28 11:46:01;;;;;;;8.70;4.03;;;;;;;7.77;100.00;100931.50;5024105;28;20041;-58
2022/12/28 11:48:46;;;;;;;;;;;;;;;7.81;100.00;100929.41;5016939;28;20038;-58
2022/12/28 11:51:40;;;;;;;9.38;3.80;;;;;;;7.77;100.00;100920.09;5024257;28;19909;-56
2022/12/28 11:54:35;;;;;;;10.48;3.80;;;;;;;7.76;100.00;100916.59;5013373;28;20064;-57
2022/12/28 11:57:00;;;;;;;9.80;3.80;;;;;;;7.73;100.00;100900.22;5021821;28;20052;-57
2022/12/28 11:59:28;;;;;;;6.28;3.38;;;;;;;7.71;100.00;100884.53;5021102;28;20072;-62